sensor_id;sensor_type;location;lat;lon;timestamp;P1;durP1;ratioP1;P2;durP2;ratioP2
9526;SDS011;4802;51.494;6.770;2023-06-01T00:01:36;4.20;;;2.70;;
9526;SDS011;4802;51.494;6.770;2023-06-01T00:04:05;7.10;;;2.70;;
9526;SDS011;4802;51.494;6.770;2023-06-01T00:06:34;6.73;;;3.13;;
9526;SDS011;4802;51.494;6.770;2023-06-01T00:09:05;25.33;;;3.00;;
9526;SDS011;4802;51.494;6.770;2023-06-01T00:11:36;2.77;;;2.57;;
9526;SDS011;4802;51.494;6.770;2023-06-01T00:14:05;7.30;;;3.10;;
9526;SDS011;4802;51.494;6.770;2023-06-01T00:16:35;3.13;;;2.90;;
9526;SDS011;4802;51.494;6.770;2023-06-01T00:19:05;3.57;;;3.33;;
9526;SDS011;4802;51.494;6.770;2023-06-01T00:21:34;4.17;;;3.30;;
9526;SDS011;4802;51.494;6.770;2023-06-01T00:24:03;5.07;;;2.97;;
9526;SDS011;4802;51.494;6.770;2023-06-01T00:26:32;4.63;;;2.50;;
9526;SDS011;4802;51.494;6.770;2023-06-01T00:29:01;12.83;;;3.13;;
9526;SDS011;4802;51.494;6.770;2023-06-01T00:31:30;3.07;;;2.70;;
9526;SDS011;4802;51.494;6.770;2023-06-01T00:34:00;5.60;;;2.80;;
9526;SDS011;4802;51.494;6.770;2023-06-01T00:36:29;7.20;;;2.20;;
9526;SDS011;4802;51.494;6.770;2023-06-01T00:38:58;2.57;;;2.37;;
9526;SDS011;4802;51.494;6.770;2023-06-01T00:41:31;4.20;;;3.47;;
9526;SDS011;4802;51.494;6.770;2023-06-01T00:44:00;3.27;;;2.97;;
9526;SDS011;4802;51.494;6.770;2023-06-01T00:46:30;3.10;;;2.80;;
9526;SDS011;4802;51.494;6.770;2023-06-01T00:48:59;10.33;;;3.30;;
9526;SDS011;4802;51.494;6.770;2023-06-01T00:51:29;2.47;;;2.27;;
9526;SDS011;4802;51.494;6.770;2023-06-01T00:53:58;3.07;;;2.80;;
9526;SDS011;4802;51.494;6.770;2023-06-01T00:56:27;3.90;;;3.63;;
9526;SDS011;4802;51.494;6.770;2023-06-01T00:59:00;3.20;;;2.87;;
9526;SDS011;4802;51.494;6.770;2023-06-01T01:01:34;3.93;;;3.17;;
9526;SDS011;4802;51.494;6.770;2023-06-01T01:04:03;2.47;;;2.17;;
9526;SDS011;4802;51.494;6.770;2023-06-01T01:06:36;5.53;;;3.20;;
9526;SDS011;4802;51.494;6.770;2023-06-01T01:09:14;2.87;;;2.67;;
9526;SDS011;4802;51.494;6.770;2023-06-01T01:11:48;5.50;;;3.63;;
9526;SDS011;4802;51.494;6.770;2023-06-01T01:14:20;5.63;;;3.20;;
9526;SDS011;4802;51.494;6.770;2023-06-01T01:16:52;8.83;;;4.93;;
9526;SDS011;4802;51.494;6.770;2023-06-01T01:19:28;3.30;;;3.00;;
9526;SDS011;4802;51.494;6.770;2023-06-01T01:22:07;4.83;;;3.20;;
9526;SDS011;4802;51.494;6.770;2023-06-01T01:24:43;11.00;;;4.17;;
9526;SDS011;4802;51.494;6.770;2023-06-01T01:27:19;3.00;;;2.70;;
9526;SDS011;4802;51.494;6.770;2023-06-01T01:29:58;5.83;;;3.63;;
9526;SDS011;4802;51.494;6.770;2023-06-01T01:32:32;5.83;;;3.97;;
9526;SDS011;4802;51.494;6.770;2023-06-01T01:35:02;9.87;;;3.30;;
9526;SDS011;4802;51.494;6.770;2023-06-01T01:37:32;5.73;;;4.03;;
9526;SDS011;4802;51.494;6.770;2023-06-01T01:40:01;10.60;;;4.13;;
9526;SDS011;4802;51.494;6.770;2023-06-01T01:42:31;14.23;;;4.87;;
9526;SDS011;4802;51.494;6.770;2023-06-01T01:45:02;5.63;;;4.07;;
9526;SDS011;4802;51.494;6.770;2023-06-01T01:47:34;6.57;;;3.80;;
9526;SDS011;4802;51.494;6.770;2023-06-01T01:50:06;6.90;;;3.70;;
9526;SDS011;4802;51.494;6.770;2023-06-01T01:52:39;7.13;;;4.60;;
9526;SDS011;4802;51.494;6.770;2023-06-01T01:55:10;6.30;;;3.17;;
9526;SDS011;4802;51.494;6.770;2023-06-01T01:57:39;5.20;;;3.13;;
9526;SDS011;4802;51.494;6.770;2023-06-01T02:00:10;7.40;;;4.83;;
9526;SDS011;4802;51.494;6.770;2023-06-01T02:02:40;8.40;;;4.30;;
9526;SDS011;4802;51.494;6.770;2023-06-01T02:05:09;6.50;;;3.80;;
9526;SDS011;4802;51.494;6.770;2023-06-01T02:07:38;8.40;;;3.83;;
9526;SDS011;4802;51.494;6.770;2023-06-01T02:10:07;4.60;;;4.20;;
9526;SDS011;4802;51.494;6.770;2023-06-01T02:12:36;5.63;;;4.83;;
9526;SDS011;4802;51.494;6.770;2023-06-01T02:15:06;9.87;;;4.67;;
9526;SDS011;4802;51.494;6.770;2023-06-01T02:17:37;4.63;;;3.63;;
9526;SDS011;4802;51.494;6.770;2023-06-01T02:20:09;7.37;;;5.03;;
9526;SDS011;4802;51.494;6.770;2023-06-01T02:22:38;12.03;;;4.20;;
9526;SDS011;4802;51.494;6.770;2023-06-01T02:25:07;5.10;;;4.60;;
9526;SDS011;4802;51.494;6.770;2023-06-01T02:27:37;8.30;;;4.70;;
9526;SDS011;4802;51.494;6.770;2023-06-01T02:30:06;5.00;;;4.20;;
9526;SDS011;4802;51.494;6.770;2023-06-01T02:32:36;5.80;;;4.30;;
9526;SDS011;4802;51.494;6.770;2023-06-01T02:35:06;11.27;;;4.53;;
9526;SDS011;4802;51.494;6.770;2023-06-01T02:37:35;12.50;;;4.70;;
9526;SDS011;4802;51.494;6.770;2023-06-01T02:40:05;8.33;;;5.13;;
9526;SDS011;4802;51.494;6.770;2023-06-01T02:42:38;6.47;;;4.60;;
9526;SDS011;4802;51.494;6.770;2023-06-01T02:45:07;5.03;;;4.47;;
9526;SDS011;4802;51.494;6.770;2023-06-01T02:47:38;11.90;;;6.23;;
9526;SDS011;4802;51.494;6.770;2023-06-01T02:50:07;8.03;;;5.50;;
9526;SDS011;4802;51.494;6.770;2023-06-01T02:52:37;6.43;;;5.20;;
9526;SDS011;4802;51.494;6.770;2023-06-01T02:55:07;8.93;;;5.83;;
9526;SDS011;4802;51.494;6.770;2023-06-01T02:57:36;7.43;;;6.10;;
9526;SDS011;4802;51.494;6.770;2023-06-01T03:00:05;13.13;;;5.73;;
9526;SDS011;4802;51.494;6.770;2023-06-01T03:02:44;8.40;;;6.30;;
9526;SDS011;4802;51.494;6.770;2023-06-01T03:05:13;8.17;;;5.73;;
9526;SDS011;4802;51.494;6.770;2023-06-01T03:07:44;13.43;;;8.43;;
9526;SDS011;4802;51.494;6.770;2023-06-01T03:10:13;9.67;;;6.10;;
9526;SDS011;4802;51.494;6.770;2023-06-01T03:12:42;12.13;;;7.30;;
9526;SDS011;4802;51.494;6.770;2023-06-01T03:15:10;16.40;;;6.67;;
9526;SDS011;4802;51.494;6.770;2023-06-01T03:17:39;8.83;;;5.07;;
9526;SDS011;4802;51.494;6.770;2023-06-01T03:20:11;12.60;;;6.10;;
9526;SDS011;4802;51.494;6.770;2023-06-01T03:22:42;15.23;;;6.83;;
9526;SDS011;4802;51.494;6.770;2023-06-01T03:25:11;10.83;;;7.90;;
9526;SDS011;4802;51.494;6.770;2023-06-01T03:27:40;13.40;;;6.80;;
9526;SDS011;4802;51.494;6.770;2023-06-01T03:30:10;11.23;;;7.33;;
9526;SDS011;4802;51.494;6.770;2023-06-01T03:32:39;9.13;;;5.40;;
9526;SDS011;4802;51.494;6.770;2023-06-01T03:35:09;15.40;;;6.60;;
9526;SDS011;4802;51.494;6.770;2023-06-01T03:37:40;8.77;;;7.87;;
9526;SDS011;4802;51.494;6.770;2023-06-01T03:40:10;14.13;;;7.97;;
9526;SDS011;4802;51.494;6.770;2023-06-01T03:42:40;10.30;;;6.70;;
9526;SDS011;4802;51.494;6.770;2023-06-01T03:45:09;17.43;;;7.50;;
9526;SDS011;4802;51.494;6.770;2023-06-01T03:47:39;10.80;;;6.10;;
9526;SDS011;4802;51.494;6.770;2023-06-01T03:50:09;17.27;;;6.37;;
9526;SDS011;4802;51.494;6.770;2023-06-01T03:52:39;10.40;;;6.70;;
9526;SDS011;4802;51.494;6.770;2023-06-01T03:55:08;10.73;;;6.40;;
9526;SDS011;4802;51.494;6.770;2023-06-01T03:57:39;9.17;;;6.77;;
9526;SDS011;4802;51.494;6.770;2023-06-01T04:00:09;8.53;;;5.17;;
9526;SDS011;4802;51.494;6.770;2023-06-01T04:02:46;14.07;;;7.10;;
9526;SDS011;4802;51.494;6.770;2023-06-01T04:05:16;9.10;;;5.27;;
9526;SDS011;4802;51.494;6.770;2023-06-01T04:07:49;10.20;;;6.40;;
9526;SDS011;4802;51.494;6.770;2023-06-01T04:10:18;10.07;;;6.20;;
9526;SDS011;4802;51.494;6.770;2023-06-01T04:12:48;16.00;;;6.20;;
9526;SDS011;4802;51.494;6.770;2023-06-01T04:15:17;8.80;;;5.67;;
9526;SDS011;4802;51.494;6.770;2023-06-01T04:17:47;8.60;;;5.70;;
9526;SDS011;4802;51.494;6.770;2023-06-01T04:20:16;6.23;;;5.60;;
9526;SDS011;4802;51.494;6.770;2023-06-01T04:22:45;9.00;;;5.43;;
9526;SDS011;4802;51.494;6.770;2023-06-01T04:25:16;12.33;;;6.30;;
9526;SDS011;4802;51.494;6.770;2023-06-01T04:27:47;9.73;;;6.30;;
9526;SDS011;4802;51.494;6.770;2023-06-01T04:30:18;9.37;;;5.13;;
9526;SDS011;4802;51.494;6.770;2023-06-01T04:32:49;11.37;;;5.80;;
9526;SDS011;4802;51.494;6.770;2023-06-01T04:35:22;16.73;;;6.13;;
9526;SDS011;4802;51.494;6.770;2023-06-01T04:37:52;11.53;;;4.90;;
9526;SDS011;4802;51.494;6.770;2023-06-01T04:40:24;6.20;;;5.20;;
9526;SDS011;4802;51.494;6.770;2023-06-01T04:42:53;6.00;;;4.87;;
9526;SDS011;4802;51.494;6.770;2023-06-01T04:45:25;8.77;;;5.57;;
9526;SDS011;4802;51.494;6.770;2023-06-01T04:47:57;6.40;;;4.50;;
9526;SDS011;4802;51.494;6.770;2023-06-01T04:50:28;6.50;;;3.53;;
9526;SDS011;4802;51.494;6.770;2023-06-01T04:52:57;11.17;;;5.70;;
9526;SDS011;4802;51.494;6.770;2023-06-01T04:55:29;8.50;;;4.73;;
9526;SDS011;4802;51.494;6.770;2023-06-01T04:57:58;9.67;;;4.67;;
9526;SDS011;4802;51.494;6.770;2023-06-01T05:00:28;13.50;;;6.60;;
9526;SDS011;4802;51.494;6.770;2023-06-01T05:02:56;11.43;;;7.00;;
9526;SDS011;4802;51.494;6.770;2023-06-01T05:05:27;8.27;;;6.23;;
9526;SDS011;4802;51.494;6.770;2023-06-01T05:07:56;11.03;;;5.00;;
9526;SDS011;4802;51.494;6.770;2023-06-01T05:10:25;9.57;;;5.23;;
9526;SDS011;4802;51.494;6.770;2023-06-01T05:12:57;6.97;;;5.20;;
9526;SDS011;4802;51.494;6.770;2023-06-01T05:15:26;7.60;;;4.70;;
9526;SDS011;4802;51.494;6.770;2023-06-01T05:17:57;10.20;;;5.27;;
9526;SDS011;4802;51.494;6.770;2023-06-01T05:20:27;5.97;;;4.23;;
9526;SDS011;4802;51.494;6.770;2023-06-01T05:22:57;5.93;;;4.27;;
9526;SDS011;4802;51.494;6.770;2023-06-01T05:25:26;6.70;;;5.87;;
9526;SDS011;4802;51.494;6.770;2023-06-01T05:27:58;7.07;;;4.97;;
9526;SDS011;4802;51.494;6.770;2023-06-01T05:30:27;6.93;;;5.40;;
9526;SDS011;4802;51.494;6.770;2023-06-01T05:32:56;10.63;;;4.30;;
9526;SDS011;4802;51.494;6.770;2023-06-01T05:35:26;13.23;;;5.03;;
9526;SDS011;4802;51.494;6.770;2023-06-01T05:37:57;7.77;;;4.47;;
9526;SDS011;4802;51.494;6.770;2023-06-01T05:40:26;6.10;;;4.03;;
9526;SDS011;4802;51.494;6.770;2023-06-01T05:42:55;5.00;;;4.00;;
9526;SDS011;4802;51.494;6.770;2023-06-01T05:45:30;15.70;;;5.30;;
9526;SDS011;4802;51.494;6.770;2023-06-01T05:47:59;6.30;;;4.30;;
9526;SDS011;4802;51.494;6.770;2023-06-01T05:50:28;15.40;;;3.93;;
9526;SDS011;4802;51.494;6.770;2023-06-01T05:52:57;10.67;;;5.93;;
9526;SDS011;4802;51.494;6.770;2023-06-01T05:55:26;12.07;;;4.87;;
9526;SDS011;4802;51.494;6.770;2023-06-01T05:57:55;5.30;;;4.80;;
9526;SDS011;4802;51.494;6.770;2023-06-01T06:00:24;9.37;;;3.50;;
9526;SDS011;4802;51.494;6.770;2023-06-01T06:02:58;7.90;;;4.17;;
9526;SDS011;4802;51.494;6.770;2023-06-01T06:05:28;5.03;;;3.57;;
9526;SDS011;4802;51.494;6.770;2023-06-01T06:08:02;9.83;;;4.43;;
9526;SDS011;4802;51.494;6.770;2023-06-01T06:10:32;7.13;;;5.70;;
9526;SDS011;4802;51.494;6.770;2023-06-01T06:13:01;3.80;;;3.30;;
9526;SDS011;4802;51.494;6.770;2023-06-01T06:15:38;4.13;;;3.40;;
9526;SDS011;4802;51.494;6.770;2023-06-01T06:18:10;6.83;;;5.10;;
9526;SDS011;4802;51.494;6.770;2023-06-01T06:20:42;4.30;;;3.40;;
9526;SDS011;4802;51.494;6.770;2023-06-01T06:23:12;5.80;;;4.53;;
9526;SDS011;4802;51.494;6.770;2023-06-01T06:25:45;5.57;;;4.13;;
9526;SDS011;4802;51.494;6.770;2023-06-01T06:28:22;9.00;;;4.80;;
9526;SDS011;4802;51.494;6.770;2023-06-01T06:30:53;11.27;;;4.83;;
9526;SDS011;4802;51.494;6.770;2023-06-01T06:33:33;20.23;;;4.83;;
9526;SDS011;4802;51.494;6.770;2023-06-01T06:36:05;6.97;;;5.47;;
9526;SDS011;4802;51.494;6.770;2023-06-01T06:38:35;6.43;;;5.30;;
9526;SDS011;4802;51.494;6.770;2023-06-01T06:41:13;6.40;;;4.30;;
9526;SDS011;4802;51.494;6.770;2023-06-01T06:43:52;5.93;;;5.17;;
9526;SDS011;4802;51.494;6.770;2023-06-01T06:46:21;6.77;;;5.00;;
9526;SDS011;4802;51.494;6.770;2023-06-01T06:48:56;6.10;;;4.87;;
9526;SDS011;4802;51.494;6.770;2023-06-01T06:51:25;10.27;;;5.43;;
9526;SDS011;4802;51.494;6.770;2023-06-01T06:54:04;8.23;;;4.47;;
9526;SDS011;4802;51.494;6.770;2023-06-01T06:56:33;4.93;;;3.97;;
9526;SDS011;4802;51.494;6.770;2023-06-01T06:59:04;4.50;;;3.77;;
9526;SDS011;4802;51.494;6.770;2023-06-01T07:01:34;8.57;;;5.00;;
9526;SDS011;4802;51.494;6.770;2023-06-01T07:04:09;10.37;;;5.50;;
9526;SDS011;4802;51.494;6.770;2023-06-01T07:06:39;6.43;;;4.60;;
9526;SDS011;4802;51.494;6.770;2023-06-01T07:09:11;4.20;;;3.90;;
9526;SDS011;4802;51.494;6.770;2023-06-01T07:11:42;6.07;;;3.97;;
9526;SDS011;4802;51.494;6.770;2023-06-01T07:14:14;5.00;;;4.00;;
9526;SDS011;4802;51.494;6.770;2023-06-01T07:16:45;5.70;;;4.73;;
9526;SDS011;4802;51.494;6.770;2023-06-01T07:19:20;4.70;;;3.40;;
9526;SDS011;4802;51.494;6.770;2023-06-01T07:21:53;6.70;;;4.03;;
9526;SDS011;4802;51.494;6.770;2023-06-01T07:24:28;3.70;;;3.40;;
9526;SDS011;4802;51.494;6.770;2023-06-01T07:26:56;6.83;;;3.33;;
9526;SDS011;4802;51.494;6.770;2023-06-01T07:29:26;4.77;;;4.37;;
9526;SDS011;4802;51.494;6.770;2023-06-01T07:31:57;6.80;;;5.23;;
9526;SDS011;4802;51.494;6.770;2023-06-01T07:34:29;5.47;;;4.60;;
9526;SDS011;4802;51.494;6.770;2023-06-01T07:37:00;6.43;;;4.70;;
9526;SDS011;4802;51.494;6.770;2023-06-01T07:39:44;8.27;;;4.27;;
9526;SDS011;4802;51.494;6.770;2023-06-01T07:42:19;6.83;;;4.03;;
9526;SDS011;4802;51.494;6.770;2023-06-01T07:44:49;5.80;;;4.57;;
9526;SDS011;4802;51.494;6.770;2023-06-01T07:47:18;8.23;;;4.47;;
9526;SDS011;4802;51.494;6.770;2023-06-01T07:49:49;5.40;;;4.60;;
9526;SDS011;4802;51.494;6.770;2023-06-01T07:52:19;3.53;;;3.23;;
9526;SDS011;4802;51.494;6.770;2023-06-01T07:54:50;8.27;;;4.70;;
9526;SDS011;4802;51.494;6.770;2023-06-01T07:57:21;4.87;;;3.50;;
9526;SDS011;4802;51.494;6.770;2023-06-01T07:59:51;7.87;;;4.37;;
9526;SDS011;4802;51.494;6.770;2023-06-01T08:02:23;8.23;;;4.10;;
9526;SDS011;4802;51.494;6.770;2023-06-01T08:04:54;4.77;;;3.47;;
9526;SDS011;4802;51.494;6.770;2023-06-01T08:07:23;6.30;;;4.90;;
9526;SDS011;4802;51.494;6.770;2023-06-01T08:09:54;3.97;;;3.30;;
9526;SDS011;4802;51.494;6.770;2023-06-01T08:12:24;6.73;;;3.47;;
9526;SDS011;4802;51.494;6.770;2023-06-01T08:14:54;18.57;;;4.10;;
9526;SDS011;4802;51.494;6.770;2023-06-01T08:17:24;4.20;;;3.90;;
9526;SDS011;4802;51.494;6.770;2023-06-01T08:19:55;3.77;;;3.30;;
9526;SDS011;4802;51.494;6.770;2023-06-01T08:22:24;8.23;;;3.83;;
9526;SDS011;4802;51.494;6.770;2023-06-01T08:24:58;11.87;;;3.20;;
9526;SDS011;4802;51.494;6.770;2023-06-01T08:27:28;4.67;;;3.00;;
9526;SDS011;4802;51.494;6.770;2023-06-01T08:29:58;2.80;;;2.60;;
9526;SDS011;4802;51.494;6.770;2023-06-01T08:32:27;2.70;;;2.50;;
9526;SDS011;4802;51.494;6.770;2023-06-01T08:34:58;5.20;;;3.20;;
9526;SDS011;4802;51.494;6.770;2023-06-01T08:37:27;10.67;;;4.47;;
9526;SDS011;4802;51.494;6.770;2023-06-01T08:39:56;5.07;;;3.37;;
9526;SDS011;4802;51.494;6.770;2023-06-01T08:42:29;5.90;;;2.70;;
9526;SDS011;4802;51.494;6.770;2023-06-01T08:44:59;3.77;;;3.10;;
9526;SDS011;4802;51.494;6.770;2023-06-01T08:47:32;3.83;;;3.20;;
9526;SDS011;4802;51.494;6.770;2023-06-01T08:50:03;4.63;;;3.03;;
9526;SDS011;4802;51.494;6.770;2023-06-01T08:52:34;5.30;;;3.67;;
9526;SDS011;4802;51.494;6.770;2023-06-01T08:55:04;5.47;;;3.80;;
9526;SDS011;4802;51.494;6.770;2023-06-01T08:57:33;3.67;;;3.20;;
9526;SDS011;4802;51.494;6.770;2023-06-01T09:00:02;3.47;;;3.17;;
9526;SDS011;4802;51.494;6.770;2023-06-01T09:02:33;6.50;;;3.60;;
9526;SDS011;4802;51.494;6.770;2023-06-01T09:05:04;3.43;;;3.00;;
9526;SDS011;4802;51.494;6.770;2023-06-01T09:07:33;4.93;;;3.93;;
9526;SDS011;4802;51.494;6.770;2023-06-01T09:10:03;3.83;;;3.30;;
9526;SDS011;4802;51.494;6.770;2023-06-01T09:12:33;6.73;;;3.87;;
9526;SDS011;4802;51.494;6.770;2023-06-01T09:15:08;5.27;;;3.23;;
9526;SDS011;4802;51.494;6.770;2023-06-01T09:17:39;3.30;;;3.00;;
9526;SDS011;4802;51.494;6.770;2023-06-01T09:20:14;4.50;;;3.37;;
9526;SDS011;4802;51.494;6.770;2023-06-01T09:22:44;6.60;;;3.07;;
9526;SDS011;4802;51.494;6.770;2023-06-01T09:25:13;6.80;;;4.07;;
9526;SDS011;4802;51.494;6.770;2023-06-01T09:27:44;5.27;;;4.07;;
9526;SDS011;4802;51.494;6.770;2023-06-01T09:30:13;3.87;;;3.50;;
9526;SDS011;4802;51.494;6.770;2023-06-01T09:32:43;4.97;;;3.10;;
9526;SDS011;4802;51.494;6.770;2023-06-01T09:35:23;3.27;;;3.00;;
9526;SDS011;4802;51.494;6.770;2023-06-01T09:38:05;4.37;;;2.80;;
9526;SDS011;4802;51.494;6.770;2023-06-01T09:40:34;4.00;;;3.10;;
9526;SDS011;4802;51.494;6.770;2023-06-01T09:43:04;2.93;;;2.73;;
9526;SDS011;4802;51.494;6.770;2023-06-01T09:45:55;4.40;;;3.47;;
9526;SDS011;4802;51.494;6.770;2023-06-01T09:48:35;7.03;;;3.83;;
9526;SDS011;4802;51.494;6.770;2023-06-01T09:51:06;6.47;;;3.30;;
9526;SDS011;4802;51.494;6.770;2023-06-01T09:53:49;4.83;;;3.57;;
9526;SDS011;4802;51.494;6.770;2023-06-01T09:56:19;3.70;;;3.33;;
9526;SDS011;4802;51.494;6.770;2023-06-01T09:58:50;3.73;;;3.10;;
9526;SDS011;4802;51.494;6.770;2023-06-01T10:01:26;3.50;;;3.30;;
9526;SDS011;4802;51.494;6.770;2023-06-01T10:04:00;4.60;;;3.83;;
9526;SDS011;4802;51.494;6.770;2023-06-01T10:06:36;3.73;;;3.13;;
9526;SDS011;4802;51.494;6.770;2023-06-01T10:09:08;4.67;;;2.73;;
9526;SDS011;4802;51.494;6.770;2023-06-01T10:11:42;3.50;;;3.10;;
9526;SDS011;4802;51.494;6.770;2023-06-01T10:14:11;3.80;;;3.23;;
9526;SDS011;4802;51.494;6.770;2023-06-01T10:16:41;7.63;;;3.30;;
9526;SDS011;4802;51.494;6.770;2023-06-01T10:19:11;6.63;;;2.87;;
9526;SDS011;4802;51.494;6.770;2023-06-01T10:21:42;4.40;;;4.00;;
9526;SDS011;4802;51.494;6.770;2023-06-01T10:24:12;3.83;;;3.53;;
9526;SDS011;4802;51.494;6.770;2023-06-01T10:26:49;4.03;;;2.80;;
9526;SDS011;4802;51.494;6.770;2023-06-01T10:29:20;3.57;;;2.83;;
9526;SDS011;4802;51.494;6.770;2023-06-01T10:31:50;2.90;;;2.70;;
9526;SDS011;4802;51.494;6.770;2023-06-01T10:37:17;2.57;;;2.37;;
9526;SDS011;4802;51.494;6.770;2023-06-01T10:39:47;3.13;;;2.80;;
9526;SDS011;4802;51.494;6.770;2023-06-01T10:48:00;11.83;;;5.03;;
9526;SDS011;4802;51.494;6.770;2023-06-01T10:50:33;5.83;;;3.43;;
9526;SDS011;4802;51.494;6.770;2023-06-01T10:53:25;6.93;;;3.77;;
9526;SDS011;4802;51.494;6.770;2023-06-01T10:58:45;18.23;;;3.80;;
9526;SDS011;4802;51.494;6.770;2023-06-01T11:01:18;4.03;;;3.10;;
9526;SDS011;4802;51.494;6.770;2023-06-01T11:03:48;3.90;;;2.70;;
9526;SDS011;4802;51.494;6.770;2023-06-01T11:06:25;8.17;;;3.70;;
9526;SDS011;4802;51.494;6.770;2023-06-01T11:08:56;4.97;;;3.30;;
9526;SDS011;4802;51.494;6.770;2023-06-01T11:14:15;7.03;;;3.00;;
9526;SDS011;4802;51.494;6.770;2023-06-01T11:16:45;4.67;;;3.13;;
9526;SDS011;4802;51.494;6.770;2023-06-01T11:19:17;5.80;;;4.53;;
9526;SDS011;4802;51.494;6.770;2023-06-01T11:21:48;9.43;;;3.70;;
9526;SDS011;4802;51.494;6.770;2023-06-01T11:24:19;2.30;;;2.07;;
9526;SDS011;4802;51.494;6.770;2023-06-01T11:26:49;9.10;;;4.27;;
9526;SDS011;4802;51.494;6.770;2023-06-01T11:29:21;10.00;;;3.93;;
9526;SDS011;4802;51.494;6.770;2023-06-01T11:31:52;6.20;;;3.43;;
9526;SDS011;4802;51.494;6.770;2023-06-01T11:34:26;7.93;;;5.00;;
9526;SDS011;4802;51.494;6.770;2023-06-01T11:37:00;5.80;;;3.73;;
9526;SDS011;4802;51.494;6.770;2023-06-01T11:40:06;3.50;;;3.20;;
9526;SDS011;4802;51.494;6.770;2023-06-01T11:42:36;4.97;;;3.60;;
9526;SDS011;4802;51.494;6.770;2023-06-01T11:45:06;7.97;;;4.00;;
9526;SDS011;4802;51.494;6.770;2023-06-01T11:47:36;2.90;;;2.30;;
9526;SDS011;4802;51.494;6.770;2023-06-01T11:50:09;4.70;;;4.30;;
9526;SDS011;4802;51.494;6.770;2023-06-01T11:52:48;6.50;;;2.93;;
9526;SDS011;4802;51.494;6.770;2023-06-01T11:55:19;3.63;;;3.23;;
9526;SDS011;4802;51.494;6.770;2023-06-01T11:57:48;7.30;;;3.67;;
9526;SDS011;4802;51.494;6.770;2023-06-01T12:00:18;3.67;;;3.37;;
9526;SDS011;4802;51.494;6.770;2023-06-01T12:02:48;9.03;;;3.50;;
9526;SDS011;4802;51.494;6.770;2023-06-01T12:05:17;4.00;;;3.40;;
9526;SDS011;4802;51.494;6.770;2023-06-01T12:07:47;7.10;;;3.37;;
9526;SDS011;4802;51.494;6.770;2023-06-01T12:10:19;3.90;;;3.50;;
9526;SDS011;4802;51.494;6.770;2023-06-01T12:12:49;6.90;;;2.33;;
9526;SDS011;4802;51.494;6.770;2023-06-01T12:15:19;8.00;;;3.67;;
9526;SDS011;4802;51.494;6.770;2023-06-01T12:17:48;9.30;;;6.97;;
9526;SDS011;4802;51.494;6.770;2023-06-01T12:20:27;7.73;;;3.17;;
9526;SDS011;4802;51.494;6.770;2023-06-01T12:22:57;4.30;;;3.00;;
9526;SDS011;4802;51.494;6.770;2023-06-01T12:25:29;8.93;;;4.23;;
9526;SDS011;4802;51.494;6.770;2023-06-01T12:28:03;4.10;;;2.93;;
9526;SDS011;4802;51.494;6.770;2023-06-01T12:30:33;6.00;;;3.10;;
9526;SDS011;4802;51.494;6.770;2023-06-01T12:33:04;3.33;;;3.03;;
9526;SDS011;4802;51.494;6.770;2023-06-01T12:35:46;8.33;;;3.87;;
9526;SDS011;4802;51.494;6.770;2023-06-01T12:38:15;3.93;;;3.20;;
9526;SDS011;4802;51.494;6.770;2023-06-01T12:40:50;4.10;;;3.30;;
9526;SDS011;4802;51.494;6.770;2023-06-01T12:43:35;4.97;;;2.20;;
9526;SDS011;4802;51.494;6.770;2023-06-01T12:46:04;3.57;;;3.27;;
9526;SDS011;4802;51.494;6.770;2023-06-01T12:48:34;5.47;;;3.20;;
9526;SDS011;4802;51.494;6.770;2023-06-01T12:51:04;4.47;;;4.00;;
9526;SDS011;4802;51.494;6.770;2023-06-01T12:53:35;3.70;;;3.33;;
9526;SDS011;4802;51.494;6.770;2023-06-01T12:56:08;2.70;;;2.27;;
9526;SDS011;4802;51.494;6.770;2023-06-01T12:58:39;6.03;;;3.97;;
9526;SDS011;4802;51.494;6.770;2023-06-01T13:01:13;4.70;;;4.30;;
9526;SDS011;4802;51.494;6.770;2023-06-01T13:03:47;8.00;;;4.00;;
9526;SDS011;4802;51.494;6.770;2023-06-01T13:06:16;3.97;;;3.57;;
9526;SDS011;4802;51.494;6.770;2023-06-01T13:08:47;3.63;;;2.93;;
9526;SDS011;4802;51.494;6.770;2023-06-01T13:11:18;5.20;;;3.13;;
9526;SDS011;4802;51.494;6.770;2023-06-01T13:13:49;3.70;;;2.70;;
9526;SDS011;4802;51.494;6.770;2023-06-01T13:16:18;4.63;;;3.10;;
9526;SDS011;4802;51.494;6.770;2023-06-01T13:18:48;4.43;;;3.43;;
9526;SDS011;4802;51.494;6.770;2023-06-01T13:21:17;7.40;;;3.80;;
9526;SDS011;4802;51.494;6.770;2023-06-01T13:23:47;6.00;;;3.67;;
9526;SDS011;4802;51.494;6.770;2023-06-01T13:26:18;3.20;;;2.90;;
9526;SDS011;4802;51.494;6.770;2023-06-01T13:28:49;3.23;;;2.50;;
9526;SDS011;4802;51.494;6.770;2023-06-01T13:31:19;3.63;;;3.13;;
9526;SDS011;4802;51.494;6.770;2023-06-01T13:33:51;3.73;;;3.10;;
9526;SDS011;4802;51.494;6.770;2023-06-01T13:36:20;2.97;;;2.77;;
9526;SDS011;4802;51.494;6.770;2023-06-01T13:38:54;3.97;;;3.00;;
9526;SDS011;4802;51.494;6.770;2023-06-01T13:41:28;3.77;;;2.97;;
9526;SDS011;4802;51.494;6.770;2023-06-01T13:44:00;4.63;;;2.47;;
9526;SDS011;4802;51.494;6.770;2023-06-01T13:46:32;2.70;;;2.50;;
9526;SDS011;4802;51.494;6.770;2023-06-01T13:49:01;3.80;;;2.80;;
9526;SDS011;4802;51.494;6.770;2023-06-01T13:51:31;3.40;;;3.10;;
9526;SDS011;4802;51.494;6.770;2023-06-01T13:54:03;3.17;;;2.87;;
9526;SDS011;4802;51.494;6.770;2023-06-01T13:56:34;3.00;;;2.37;;
9526;SDS011;4802;51.494;6.770;2023-06-01T13:59:03;4.43;;;3.63;;
9526;SDS011;4802;51.494;6.770;2023-06-01T14:01:33;2.60;;;2.27;;
9526;SDS011;4802;51.494;6.770;2023-06-01T14:04:07;6.00;;;2.97;;
9526;SDS011;4802;51.494;6.770;2023-06-01T14:06:48;3.47;;;2.87;;
9526;SDS011;4802;51.494;6.770;2023-06-01T14:09:18;3.07;;;2.87;;
9526;SDS011;4802;51.494;6.770;2023-06-01T14:11:59;2.73;;;2.53;;
9526;SDS011;4802;51.494;6.770;2023-06-01T14:14:30;2.53;;;2.07;;
9526;SDS011;4802;51.494;6.770;2023-06-01T14:16:59;3.87;;;2.87;;
9526;SDS011;4802;51.494;6.770;2023-06-01T14:19:31;3.07;;;2.33;;
9526;SDS011;4802;51.494;6.770;2023-06-01T14:22:08;3.60;;;2.80;;
9526;SDS011;4802;51.494;6.770;2023-06-01T14:24:38;4.70;;;3.93;;
9526;SDS011;4802;51.494;6.770;2023-06-01T14:27:12;7.60;;;4.77;;
9526;SDS011;4802;51.494;6.770;2023-06-01T14:29:42;3.17;;;2.97;;
9526;SDS011;4802;51.494;6.770;2023-06-01T14:32:11;4.93;;;3.43;;
9526;SDS011;4802;51.494;6.770;2023-06-01T14:34:40;4.17;;;2.33;;
9526;SDS011;4802;51.494;6.770;2023-06-01T14:37:11;3.03;;;2.67;;
9526;SDS011;4802;51.494;6.770;2023-06-01T14:39:41;5.23;;;3.17;;
9526;SDS011;4802;51.494;6.770;2023-06-01T14:42:12;6.63;;;3.23;;
9526;SDS011;4802;51.494;6.770;2023-06-01T14:46:57;5.40;;;3.67;;
9526;SDS011;4802;51.494;6.770;2023-06-01T14:48:06;2.30;;;2.10;;
9526;SDS011;4802;51.494;6.770;2023-06-01T14:50:36;3.47;;;2.53;;
9526;SDS011;4802;51.494;6.770;2023-06-01T14:53:05;3.77;;;3.40;;
9526;SDS011;4802;51.494;6.770;2023-06-01T14:55:37;3.40;;;3.10;;
9526;SDS011;4802;51.494;6.770;2023-06-01T14:58:16;4.83;;;2.80;;
9526;SDS011;4802;51.494;6.770;2023-06-01T15:03:44;2.73;;;2.40;;
9526;SDS011;4802;51.494;6.770;2023-06-01T15:06:16;2.73;;;2.53;;
9526;SDS011;4802;51.494;6.770;2023-06-01T15:08:46;3.37;;;2.57;;
9526;SDS011;4802;51.494;6.770;2023-06-01T15:11:19;5.30;;;2.70;;
9526;SDS011;4802;51.494;6.770;2023-06-01T15:13:50;3.40;;;2.53;;
9526;SDS011;4802;51.494;6.770;2023-06-01T15:16:24;5.57;;;3.00;;
9526;SDS011;4802;51.494;6.770;2023-06-01T15:18:55;3.13;;;2.93;;
9526;SDS011;4802;51.494;6.770;2023-06-01T15:21:27;3.40;;;3.00;;
9526;SDS011;4802;51.494;6.770;2023-06-01T15:23:58;9.13;;;2.97;;
9526;SDS011;4802;51.494;6.770;2023-06-01T15:26:28;3.83;;;3.53;;
9526;SDS011;4802;51.494;6.770;2023-06-01T15:29:06;2.77;;;2.57;;
9526;SDS011;4802;51.494;6.770;2023-06-01T15:31:36;3.40;;;3.13;;
9526;SDS011;4802;51.494;6.770;2023-06-01T15:34:06;4.33;;;3.60;;
9526;SDS011;4802;51.494;6.770;2023-06-01T15:36:36;6.23;;;2.83;;
9526;SDS011;4802;51.494;6.770;2023-06-01T15:39:05;2.63;;;2.43;;
9526;SDS011;4802;51.494;6.770;2023-06-01T15:41:35;2.87;;;2.43;;
9526;SDS011;4802;51.494;6.770;2023-06-01T15:44:09;3.73;;;3.13;;
9526;SDS011;4802;51.494;6.770;2023-06-01T15:46:38;11.67;;;3.77;;
9526;SDS011;4802;51.494;6.770;2023-06-01T15:49:12;4.10;;;3.20;;
9526;SDS011;4802;51.494;6.770;2023-06-01T15:51:42;2.90;;;2.70;;
9526;SDS011;4802;51.494;6.770;2023-06-01T15:54:11;4.10;;;2.23;;
9526;SDS011;4802;51.494;6.770;2023-06-01T15:56:43;3.73;;;2.37;;